createdAt,value
2023-03-02T19:26:44.155Z,99600.97
2023-03-02T19:27:48.307Z,99604.48
2023-03-02T19:28:52.455Z,99597.47
2023-03-02T19:29:56.618Z,99594.45
2023-03-02T19:31:00.711Z,99595.98
2023-03-02T19:32:05.063Z,99601.34
2023-03-02T19:33:09.366Z,99591.73
2023-03-02T19:34:13.505Z,99593.71
2023-03-02T19:35:17.874Z,99594.75
2023-03-02T19:36:22.164Z,99597.1
2023-03-02T19:37:26.293Z,99596.09
2023-03-02T19:38:30.396Z,99592.45
2023-03-02T19:39:34.567Z,99589.95
2023-03-02T19:40:38.755Z,99601.53
2023-03-02T19:41:42.896Z,99596.87
2023-03-02T19:42:47.006Z,99593.08
2023-03-02T19:43:51.147Z,99601.12
2023-03-02T19:44:55.267Z,99603.58
2023-03-02T19:45:59.594Z,99598
2023-03-02T19:47:03.792Z,99591.36
2023-03-02T19:48:07.891Z,99584.66
2023-03-02T19:49:12.019Z,99591.77
2023-03-02T19:50:16.134Z,99596.13
2023-03-02T19:51:20.238Z,99594.27
2023-03-02T19:52:24.420Z,99592.84
2023-03-02T19:53:28.578Z,99588.68
2023-03-02T19:54:32.828Z,99598.29
2023-03-02T19:55:36.933Z,99596.65
2023-03-02T19:56:41.050Z,99597.87
2023-03-02T19:57:45.471Z,99594.38
2023-03-02T19:58:49.794Z,99594.87
2023-03-02T19:59:53.946Z,99594.98
2023-03-02T20:00:58.191Z,99600.23
2023-03-02T20:02:02.383Z,99589.27
2023-03-02T20:03:06.550Z,99597.36
2023-03-02T20:04:10.697Z,99599.11
2023-03-02T20:05:14.854Z,99588.02
2023-03-02T20:06:18.985Z,99600.04
2023-03-02T20:07:23.074Z,99595.57
2023-03-02T20:08:27.377Z,99595.27
2023-03-02T20:09:31.513Z,99599.38
2023-03-02T20:10:35.625Z,99594
2023-03-02T20:11:39.764Z,99596.06
2023-03-02T20:12:43.852Z,99598.73
2023-03-02T20:13:47.998Z,99591.81
2023-03-02T20:14:52.136Z,99592.89
2023-03-02T20:15:56.235Z,99596.98
2023-03-02T20:17:00.696Z,99594.64
2023-03-02T20:18:04.793Z,99586.22
2023-03-02T20:19:08.924Z,99583.88
2023-03-02T20:20:14.839Z,99583.24
2023-03-02T20:21:18.944Z,99583.54
2023-03-02T20:22:23.028Z,99588.64
2023-03-02T20:23:27.130Z,99589.98
2023-03-02T20:24:31.262Z,99585.09
2023-03-02T20:25:35.417Z,99595.42
2023-03-02T20:26:39.513Z,99586.74
2023-03-02T20:27:43.605Z,99588.68
2023-03-02T20:28:47.734Z,99590.58
2023-03-02T20:29:51.899Z,99587.34
2023-03-02T20:30:56.272Z,99587.56
2023-03-02T20:32:00.544Z,99582.31
2023-03-02T20:33:04.766Z,99586.44
2023-03-02T20:34:08.874Z,99589.61
2023-03-02T20:35:12.986Z,99580.7
2023-03-02T20:36:17.086Z,99580.81
2023-03-02T20:37:21.217Z,99584.02
2023-03-02T20:38:26.835Z,99582.38
2023-03-02T20:39:32.618Z,99582.38
2023-03-02T20:40:36.744Z,99582.05
2023-03-02T20:41:40.879Z,99584.31
2023-03-02T20:42:44.971Z,99578.66
2023-03-02T20:43:49.095Z,99570.42
2023-03-02T20:44:53.320Z,99573.96
2023-03-02T20:45:57.559Z,99572.7
2023-03-02T20:47:01.787Z,99579.84
2023-03-02T20:48:05.873Z,99576.87
2023-03-02T20:49:09.965Z,99577.36
2023-03-02T20:50:14.064Z,99573.44
2023-03-02T20:51:18.220Z,99577.23
2023-03-02T20:52:22.430Z,99576.13
2023-03-02T20:53:26.538Z,99579.32
2023-03-02T20:54:30.671Z,99573.52
2023-03-02T20:55:34.797Z,99569.16
2023-03-02T20:56:38.926Z,99569.08
2023-03-02T20:57:43.034Z,99570.72
2023-03-02T20:58:47.371Z,99564.5
2023-03-02T20:59:51.497Z,99567.29
2023-03-02T21:00:55.641Z,99564.5
2023-03-02T21:01:59.788Z,99562.3
2023-03-02T21:03:03.955Z,99563.68
2023-03-02T21:04:08.083Z,99564.09
2023-03-02T21:05:12.184Z,99567.7
2023-03-02T21:06:16.292Z,99558.28
2023-03-02T21:07:20.477Z,99562.86
2023-03-02T21:08:24.606Z,99563.34
2023-03-02T21:09:28.806Z,99562.89
2023-03-02T21:10:32.991Z,99566.13
2023-03-02T21:11:37.526Z,99561.14
2023-03-02T21:12:41.933Z,99563.53
2023-03-02T21:13:46.381Z,99563.12
2023-03-02T21:14:50.536Z,99570.75
2023-03-02T21:15:54.764Z,99561.38
2023-03-02T21:16:59.025Z,99559.91
2023-03-02T21:18:03.194Z,99555.97
2023-03-02T21:19:07.327Z,99559.73
2023-03-02T21:20:11.433Z,99562.89
2023-03-02T21:21:15.541Z,99563.41
2023-03-02T21:22:19.651Z,99565.27
2023-03-02T21:23:23.748Z,99566.28
2023-03-02T21:24:27.855Z,99564.45
2023-03-02T21:25:31.951Z,99566.2
2023-03-02T21:26:36.068Z,99556.38
2023-03-02T21:27:40.162Z,99554.41
2023-03-02T21:28:44.280Z,99559.36
2023-03-02T21:29:48.375Z,99562.97
2023-03-02T21:30:52.578Z,99556.78
2023-03-02T21:31:56.864Z,99563.59
2023-03-02T21:33:01.047Z,99558.46
2023-03-02T21:34:05.314Z,99553.17
2023-03-02T21:35:09.470Z,99559.58
2023-03-02T21:36:13.576Z,99556.72
2023-03-02T21:37:17.684Z,99553.06
2023-03-02T21:39:23.168Z,99546.8
2023-03-02T21:40:27.270Z,99553.1
2023-03-02T21:41:33.414Z,99554.44
2023-03-02T21:42:37.521Z,99547.85
2023-03-02T21:43:41.678Z,99549.78
2023-03-02T21:44:45.925Z,99544.2
2023-03-02T21:45:50.082Z,99552.7
2023-03-02T21:46:54.246Z,99556.3
2023-03-02T21:47:58.340Z,99551.87
2023-03-02T21:49:02.450Z,99549.48
2023-03-02T21:50:06.581Z,99546.92
2023-03-02T21:51:10.710Z,99551.72
2023-03-02T21:52:14.881Z,99546.47
2023-03-02T21:53:18.967Z,99545.77
2023-03-02T21:54:23.077Z,99548.03
2023-03-02T21:55:27.449Z,99549.89
2023-03-02T21:56:31.549Z,99547.22
2023-03-02T21:57:35.651Z,99544.84
2023-03-02T21:58:39.793Z,99546.7
2023-03-02T21:59:44.173Z,99545.23
2023-03-02T22:00:48.415Z,99552.58
2023-03-02T22:01:52.630Z,99552.98
2023-03-02T22:02:56.890Z,99549.05
2023-03-02T22:04:01.038Z,99553.29
2023-03-02T22:05:05.190Z,99549.71
2023-03-02T22:06:09.313Z,99553.73
2023-03-02T22:07:13.411Z,99547.52
2023-03-02T22:08:17.532Z,99548.78
2023-03-02T22:09:21.661Z,99541.11
2023-03-02T22:10:25.763Z,99540.81
2023-03-02T22:11:29.885Z,99544.83
2023-03-02T22:12:33.977Z,99536.64
2023-03-02T22:13:38.088Z,99538.09
2023-03-02T22:14:42.185Z,99528.41
2023-03-02T22:15:46.486Z,99535.41
2023-03-02T22:16:50.740Z,99533.37
2023-03-02T22:17:54.864Z,99525.88
2023-03-02T22:18:58.957Z,99532.39
2023-03-02T22:20:03.080Z,99530.53
2023-03-02T22:21:07.186Z,99534.66
2023-03-02T22:22:11.295Z,99531.95
2023-03-02T22:23:15.528Z,99535.67
2023-03-02T22:24:19.619Z,99530.38
2023-03-02T22:25:23.727Z,99537.3
2023-03-02T22:26:27.834Z,99533.8
2023-03-02T22:27:31.949Z,99528.92
2023-03-02T22:28:36.042Z,99525.84
2023-03-02T22:29:40.421Z,99530.79
2023-03-02T22:30:44.537Z,99522.93
2023-03-02T22:31:48.676Z,99527.48
2023-03-02T22:32:52.796Z,99527.81
2023-03-02T22:33:56.902Z,99531.09
2023-03-02T22:35:01.000Z,99531.09
2023-03-02T22:36:05.093Z,99526.43
2023-03-02T22:37:09.177Z,99525.69
2023-03-02T22:38:13.320Z,99531.09
2023-03-02T22:39:17.417Z,99522.93
2023-03-02T22:40:21.520Z,99520.14
2023-03-02T22:41:25.798Z,99515.59
2023-03-02T22:42:29.891Z,99528.7
2023-03-02T22:43:34.103Z,99526.2
2023-03-02T22:44:38.228Z,99522.11
2023-03-02T22:45:42.365Z,99520.84
2023-03-02T22:46:46.581Z,99523
2023-03-02T22:47:50.881Z,99522.19
2023-03-02T22:48:55.019Z,99520.73
2023-03-02T22:49:59.150Z,99516.7
2023-03-02T22:51:03.299Z,99522.07
2023-03-02T22:52:07.440Z,99502.04
2023-03-02T22:53:11.525Z,99514.95
2023-03-02T22:54:15.651Z,99514.11
2023-03-02T22:55:19.743Z,99500.26
2023-03-02T22:56:23.832Z,99503.5
2023-03-02T22:57:28.059Z,99508.41
2023-03-02T22:58:32.224Z,99504.91
2023-03-02T22:59:36.362Z,99508
2023-03-02T23:00:40.617Z,99515.03
2023-03-02T23:01:44.827Z,99520.09
2023-03-02T23:02:49.002Z,99523.19
2023-03-02T23:03:53.124Z,99517.3
2023-03-02T23:04:57.329Z,99515.84
2023-03-02T23:06:01.447Z,99520.69
2023-03-02T23:07:05.535Z,99518.53
2023-03-02T23:08:09.627Z,99510.27
2023-03-02T23:09:13.734Z,99507.48
2023-03-02T23:10:17.846Z,99510.34
2023-03-02T23:11:21.960Z,99508
2023-03-02T23:12:26.126Z,99512.42
2023-03-02T23:13:30.256Z,99506.02
2023-03-02T23:14:34.364Z,99505.09
2023-03-02T23:15:38.469Z,99505.5
2023-03-02T23:16:42.736Z,99502.93
2023-03-02T23:17:46.967Z,99503.34
2023-03-02T23:18:51.076Z,99504.86
2023-03-02T23:19:55.187Z,99503.19
2023-03-02T23:20:59.323Z,99496.01
2023-03-02T23:22:03.429Z,99503.19
2023-03-02T23:23:07.583Z,99501.06
2023-03-02T23:24:11.654Z,99506.88
2023-03-02T23:25:15.781Z,99504.2
2023-03-02T23:26:19.888Z,99496.45
2023-03-02T23:27:24.022Z,99497.16
2023-03-02T23:28:28.141Z,99497.75
2023-03-02T23:29:32.267Z,99500.88
2023-03-02T23:30:36.407Z,99503.97
2023-03-02T23:31:40.674Z,99502.22
2023-03-02T23:32:44.996Z,99501.3
2023-03-02T23:33:49.271Z,99504.9
2023-03-02T23:34:53.430Z,99493.44
2023-03-02T23:35:57.729Z,99499.55
2023-03-02T23:37:01.980Z,99489.13
2023-03-02T23:38:06.104Z,99485.06
2023-03-02T23:39:10.213Z,99491.28
2023-03-02T23:40:14.378Z,99484.25
2023-03-02T23:41:18.553Z,99485.1
2023-03-02T23:42:22.777Z,99482.2
2023-03-02T23:43:26.922Z,99485.36
2023-03-02T23:44:31.048Z,99478.77
2023-03-02T23:45:35.218Z,99485.88
2023-03-02T23:46:39.395Z,99480.52
2023-03-02T23:47:43.520Z,99485.06
2023-03-02T23:48:47.683Z,99477.02
2023-03-02T23:49:51.785Z,99476.39
2023-03-02T23:50:55.949Z,99485.14
2023-03-02T23:52:00.046Z,99479.48
2023-03-02T23:53:04.218Z,99481
2023-03-02T23:54:08.422Z,99484.84
2023-03-02T23:55:12.554Z,99484.91
2023-03-02T23:56:16.649Z,99483.09
2023-03-02T23:57:20.804Z,99477.77
2023-03-02T23:58:24.924Z,99482.75
2023-03-02T23:59:29.133Z,99484.91
